sensor_id;sensor_type;location;lat;lon;timestamp;P1;durP1;ratioP1;P2;durP2;ratioP2
74215;SDS011;62577;53.378;-2.914;2022-08-16T00:01:05;17.58;;;13.02;;
74215;SDS011;62577;53.378;-2.914;2022-08-16T00:03:32;15.90;;;12.52;;
74215;SDS011;62577;53.378;-2.914;2022-08-16T00:05:58;15.45;;;11.90;;
74215;SDS011;62577;53.378;-2.914;2022-08-16T00:08:24;16.70;;;11.57;;
74215;SDS011;62577;53.378;-2.914;2022-08-16T00:10:50;14.00;;;10.50;;
74215;SDS011;62577;53.378;-2.914;2022-08-16T00:13:16;18.30;;;11.82;;
74215;SDS011;62577;53.378;-2.914;2022-08-16T00:15:45;12.88;;;10.40;;
74215;SDS011;62577;53.378;-2.914;2022-08-16T00:18:12;13.27;;;11.00;;
74215;SDS011;62577;53.378;-2.914;2022-08-16T00:20:39;14.07;;;11.68;;
74215;SDS011;62577;53.378;-2.914;2022-08-16T00:23:05;14.95;;;10.77;;
74215;SDS011;62577;53.378;-2.914;2022-08-16T00:25:32;14.02;;;11.15;;
74215;SDS011;62577;53.378;-2.914;2022-08-16T00:27:58;13.30;;;11.63;;
74215;SDS011;62577;53.378;-2.914;2022-08-16T00:30:24;15.38;;;11.90;;
74215;SDS011;62577;53.378;-2.914;2022-08-16T00:32:52;14.93;;;12.82;;
74215;SDS011;62577;53.378;-2.914;2022-08-16T00:35:20;14.88;;;12.50;;
74215;SDS011;62577;53.378;-2.914;2022-08-16T00:37:47;16.83;;;13.38;;
74215;SDS011;62577;53.378;-2.914;2022-08-16T00:40:14;16.17;;;13.63;;
74215;SDS011;62577;53.378;-2.914;2022-08-16T00:46:09;14.65;;;12.98;;
74215;SDS011;62577;53.378;-2.914;2022-08-16T00:48:05;15.45;;;13.70;;
74215;SDS011;62577;53.378;-2.914;2022-08-16T00:50:32;17.88;;;14.60;;
74215;SDS011;62577;53.378;-2.914;2022-08-16T00:52:58;16.85;;;13.85;;
74215;SDS011;62577;53.378;-2.914;2022-08-16T00:55:24;18.55;;;13.93;;
74215;SDS011;62577;53.378;-2.914;2022-08-16T00:57:52;18.00;;;14.52;;
74215;SDS011;62577;53.378;-2.914;2022-08-16T01:00:19;17.45;;;15.55;;
74215;SDS011;62577;53.378;-2.914;2022-08-16T01:02:47;19.67;;;16.20;;
74215;SDS011;62577;53.378;-2.914;2022-08-16T01:05:13;19.10;;;15.60;;
74215;SDS011;62577;53.378;-2.914;2022-08-16T01:07:40;22.08;;;16.77;;
74215;SDS011;62577;53.378;-2.914;2022-08-16T01:10:07;21.48;;;17.27;;
74215;SDS011;62577;53.378;-2.914;2022-08-16T01:12:33;20.65;;;16.42;;
74215;SDS011;62577;53.378;-2.914;2022-08-16T01:15:00;21.73;;;17.33;;
74215;SDS011;62577;53.378;-2.914;2022-08-16T01:17:26;22.58;;;16.77;;
74215;SDS011;62577;53.378;-2.914;2022-08-16T01:19:55;20.63;;;17.15;;
74215;SDS011;62577;53.378;-2.914;2022-08-16T01:22:27;19.50;;;17.30;;
74215;SDS011;62577;53.378;-2.914;2022-08-16T01:25:00;19.70;;;16.85;;
74215;SDS011;62577;53.378;-2.914;2022-08-16T01:27:32;20.70;;;16.33;;
74215;SDS011;62577;53.378;-2.914;2022-08-16T01:30:12;18.02;;;15.57;;
74215;SDS011;62577;53.378;-2.914;2022-08-16T01:32:39;19.17;;;16.08;;
74215;SDS011;62577;53.378;-2.914;2022-08-16T01:35:31;20.73;;;15.82;;
74215;SDS011;62577;53.378;-2.914;2022-08-16T01:37:55;19.95;;;16.38;;
74215;SDS011;62577;53.378;-2.914;2022-08-16T01:40:23;22.63;;;17.90;;
74215;SDS011;62577;53.378;-2.914;2022-08-16T01:45:17;19.90;;;15.43;;
74215;SDS011;62577;53.378;-2.914;2022-08-16T01:47:43;20.50;;;15.75;;
74215;SDS011;62577;53.378;-2.914;2022-08-16T01:50:10;20.25;;;16.02;;
74215;SDS011;62577;53.378;-2.914;2022-08-16T01:52:37;19.80;;;15.60;;
74215;SDS011;62577;53.378;-2.914;2022-08-16T01:55:03;17.95;;;14.77;;
74215;SDS011;62577;53.378;-2.914;2022-08-16T01:57:29;16.90;;;13.93;;
74215;SDS011;62577;53.378;-2.914;2022-08-16T01:59:56;18.27;;;14.57;;
74215;SDS011;62577;53.378;-2.914;2022-08-16T02:02:22;18.92;;;14.85;;
74215;SDS011;62577;53.378;-2.914;2022-08-16T02:04:51;18.88;;;15.00;;
74215;SDS011;62577;53.378;-2.914;2022-08-16T02:07:17;18.00;;;15.30;;
74215;SDS011;62577;53.378;-2.914;2022-08-16T02:09:44;22.05;;;15.98;;
74215;SDS011;62577;53.378;-2.914;2022-08-16T02:12:10;21.02;;;16.33;;
74215;SDS011;62577;53.378;-2.914;2022-08-16T02:14:37;20.80;;;15.85;;
74215;SDS011;62577;53.378;-2.914;2022-08-16T02:17:04;20.35;;;15.07;;
74215;SDS011;62577;53.378;-2.914;2022-08-16T02:19:32;19.73;;;16.10;;
74215;SDS011;62577;53.378;-2.914;2022-08-16T02:21:59;20.27;;;13.90;;
74215;SDS011;62577;53.378;-2.914;2022-08-16T02:24:25;20.52;;;15.02;;
74215;SDS011;62577;53.378;-2.914;2022-08-16T02:26:52;19.00;;;15.38;;
74215;SDS011;62577;53.378;-2.914;2022-08-16T02:29:18;21.52;;;15.35;;
74215;SDS011;62577;53.378;-2.914;2022-08-16T02:31:44;18.95;;;14.75;;
74215;SDS011;62577;53.378;-2.914;2022-08-16T02:34:11;18.52;;;14.02;;
74215;SDS011;62577;53.378;-2.914;2022-08-16T02:36:37;18.63;;;15.43;;
74215;SDS011;62577;53.378;-2.914;2022-08-16T02:39:04;19.48;;;15.82;;
74215;SDS011;62577;53.378;-2.914;2022-08-16T02:41:30;20.17;;;14.57;;
74215;SDS011;62577;53.378;-2.914;2022-08-16T02:43:57;18.60;;;15.00;;
74215;SDS011;62577;53.378;-2.914;2022-08-16T02:46:24;22.83;;;15.55;;
74215;SDS011;62577;53.378;-2.914;2022-08-16T02:48:51;19.08;;;14.88;;
74215;SDS011;62577;53.378;-2.914;2022-08-16T02:51:17;20.10;;;14.88;;
74215;SDS011;62577;53.378;-2.914;2022-08-16T02:53:44;17.80;;;14.23;;
74215;SDS011;62577;53.378;-2.914;2022-08-16T02:56:11;16.00;;;13.25;;
74215;SDS011;62577;53.378;-2.914;2022-08-16T02:58:37;14.32;;;12.27;;
74215;SDS011;62577;53.378;-2.914;2022-08-16T03:01:03;14.25;;;12.45;;
74215;SDS011;62577;53.378;-2.914;2022-08-16T03:03:31;17.95;;;13.25;;
74215;SDS011;62577;53.378;-2.914;2022-08-16T03:05:58;15.70;;;12.98;;
74215;SDS011;62577;53.378;-2.914;2022-08-16T03:08:24;16.27;;;14.10;;
74215;SDS011;62577;53.378;-2.914;2022-08-16T03:10:50;16.52;;;13.88;;
74215;SDS011;62577;53.378;-2.914;2022-08-16T03:13:16;21.45;;;15.48;;
74215;SDS011;62577;53.378;-2.914;2022-08-16T03:15:43;20.48;;;14.07;;
74215;SDS011;62577;53.378;-2.914;2022-08-16T03:18:10;18.60;;;14.63;;
74215;SDS011;62577;53.378;-2.914;2022-08-16T03:20:36;17.38;;;14.43;;
74215;SDS011;62577;53.378;-2.914;2022-08-16T03:23:03;18.77;;;13.60;;
74215;SDS011;62577;53.378;-2.914;2022-08-16T03:25:29;14.45;;;11.45;;
74215;SDS011;62577;53.378;-2.914;2022-08-16T03:27:55;13.48;;;10.73;;
74215;SDS011;62577;53.378;-2.914;2022-08-16T03:30:25;13.90;;;11.50;;
74215;SDS011;62577;53.378;-2.914;2022-08-16T03:32:52;15.18;;;11.70;;
74215;SDS011;62577;53.378;-2.914;2022-08-16T03:35:21;15.35;;;12.05;;
74215;SDS011;62577;53.378;-2.914;2022-08-16T03:37:51;14.82;;;10.82;;
74215;SDS011;62577;53.378;-2.914;2022-08-16T03:40:19;14.15;;;11.30;;
74215;SDS011;62577;53.378;-2.914;2022-08-16T03:42:44;13.73;;;10.63;;
74215;SDS011;62577;53.378;-2.914;2022-08-16T03:45:10;13.70;;;10.77;;
74215;SDS011;62577;53.378;-2.914;2022-08-16T03:47:38;13.10;;;10.50;;
74215;SDS011;62577;53.378;-2.914;2022-08-16T03:50:04;13.68;;;11.68;;
74215;SDS011;62577;53.378;-2.914;2022-08-16T03:52:30;13.82;;;11.38;;
74215;SDS011;62577;53.378;-2.914;2022-08-16T03:54:57;14.77;;;11.68;;
74215;SDS011;62577;53.378;-2.914;2022-08-16T03:57:23;17.45;;;11.18;;
74215;SDS011;62577;53.378;-2.914;2022-08-16T03:59:50;13.88;;;11.05;;
74215;SDS011;62577;53.378;-2.914;2022-08-16T04:02:16;15.23;;;10.70;;
74215;SDS011;62577;53.378;-2.914;2022-08-16T04:04:43;16.20;;;11.18;;
74215;SDS011;62577;53.378;-2.914;2022-08-16T04:07:09;17.33;;;12.57;;
74215;SDS011;62577;53.378;-2.914;2022-08-16T04:09:35;16.33;;;11.82;;
74215;SDS011;62577;53.378;-2.914;2022-08-16T04:12:02;17.83;;;13.93;;
74215;SDS011;62577;53.378;-2.914;2022-08-16T04:14:28;17.33;;;12.98;;
74215;SDS011;62577;53.378;-2.914;2022-08-16T04:16:54;19.70;;;14.70;;
74215;SDS011;62577;53.378;-2.914;2022-08-16T04:19:20;19.95;;;13.18;;
74215;SDS011;62577;53.378;-2.914;2022-08-16T04:21:51;14.18;;;11.57;;
74215;SDS011;62577;53.378;-2.914;2022-08-16T04:24:17;15.68;;;12.23;;
74215;SDS011;62577;53.378;-2.914;2022-08-16T04:26:43;14.90;;;12.48;;
74215;SDS011;62577;53.378;-2.914;2022-08-16T04:29:10;17.13;;;12.18;;
74215;SDS011;62577;53.378;-2.914;2022-08-16T04:31:36;13.85;;;10.80;;
74215;SDS011;62577;53.378;-2.914;2022-08-16T04:34:02;15.32;;;11.50;;
74215;SDS011;62577;53.378;-2.914;2022-08-16T04:36:28;16.55;;;10.88;;
74215;SDS011;62577;53.378;-2.914;2022-08-16T04:38:54;15.70;;;12.25;;
74215;SDS011;62577;53.378;-2.914;2022-08-16T04:41:21;14.23;;;11.32;;
74215;SDS011;62577;53.378;-2.914;2022-08-16T04:43:47;13.88;;;11.57;;
74215;SDS011;62577;53.378;-2.914;2022-08-16T04:46:15;14.38;;;10.98;;
74215;SDS011;62577;53.378;-2.914;2022-08-16T04:48:41;13.27;;;10.88;;
74215;SDS011;62577;53.378;-2.914;2022-08-16T04:51:08;12.55;;;10.02;;
74215;SDS011;62577;53.378;-2.914;2022-08-16T04:53:34;11.80;;;9.88;;
74215;SDS011;62577;53.378;-2.914;2022-08-16T04:56:01;11.45;;;9.73;;
74215;SDS011;62577;53.378;-2.914;2022-08-16T04:58:27;11.98;;;8.82;;
74215;SDS011;62577;53.378;-2.914;2022-08-16T05:00:55;10.30;;;8.95;;
74215;SDS011;62577;53.378;-2.914;2022-08-16T05:03:21;11.25;;;8.10;;
74215;SDS011;62577;53.378;-2.914;2022-08-16T05:05:47;12.00;;;8.73;;
74215;SDS011;62577;53.378;-2.914;2022-08-16T05:08:13;11.38;;;8.00;;
74215;SDS011;62577;53.378;-2.914;2022-08-16T05:10:40;12.75;;;8.35;;
74215;SDS011;62577;53.378;-2.914;2022-08-16T05:13:06;9.93;;;8.10;;
74215;SDS011;62577;53.378;-2.914;2022-08-16T05:15:32;11.18;;;8.25;;
74215;SDS011;62577;53.378;-2.914;2022-08-16T05:17:58;10.43;;;8.40;;
74215;SDS011;62577;53.378;-2.914;2022-08-16T05:20:25;11.10;;;8.38;;
74215;SDS011;62577;53.378;-2.914;2022-08-16T05:22:51;9.90;;;8.30;;
74215;SDS011;62577;53.378;-2.914;2022-08-16T05:25:17;10.18;;;8.07;;
74215;SDS011;62577;53.378;-2.914;2022-08-16T05:27:43;9.25;;;8.25;;
74215;SDS011;62577;53.378;-2.914;2022-08-16T05:30:10;10.00;;;8.02;;
74215;SDS011;62577;53.378;-2.914;2022-08-16T05:32:39;9.73;;;8.00;;
74215;SDS011;62577;53.378;-2.914;2022-08-16T05:35:06;10.48;;;7.97;;
74215;SDS011;62577;53.378;-2.914;2022-08-16T05:37:33;11.80;;;8.30;;
74215;SDS011;62577;53.378;-2.914;2022-08-16T05:40:00;10.25;;;6.57;;
74215;SDS011;62577;53.378;-2.914;2022-08-16T05:42:26;9.00;;;6.45;;
74215;SDS011;62577;53.378;-2.914;2022-08-16T05:44:52;8.02;;;5.75;;
74215;SDS011;62577;53.378;-2.914;2022-08-16T05:47:18;7.28;;;5.82;;
74215;SDS011;62577;53.378;-2.914;2022-08-16T05:49:44;9.48;;;6.07;;
74215;SDS011;62577;53.378;-2.914;2022-08-16T05:52:10;7.88;;;5.72;;
74215;SDS011;62577;53.378;-2.914;2022-08-16T05:54:36;7.30;;;5.53;;
74215;SDS011;62577;53.378;-2.914;2022-08-16T05:57:03;7.60;;;5.60;;
74215;SDS011;62577;53.378;-2.914;2022-08-16T05:59:29;8.48;;;5.40;;
74215;SDS011;62577;53.378;-2.914;2022-08-16T06:01:56;9.52;;;6.07;;
74215;SDS011;62577;53.378;-2.914;2022-08-16T06:04:22;8.48;;;5.68;;
74215;SDS011;62577;53.378;-2.914;2022-08-16T06:06:48;5.97;;;5.38;;
74215;SDS011;62577;53.378;-2.914;2022-08-16T06:09:15;6.95;;;5.18;;
74215;SDS011;62577;53.378;-2.914;2022-08-16T06:11:42;8.35;;;6.13;;
74215;SDS011;62577;53.378;-2.914;2022-08-16T06:14:08;8.38;;;5.72;;
74215;SDS011;62577;53.378;-2.914;2022-08-16T06:16:34;8.00;;;5.43;;
74215;SDS011;62577;53.378;-2.914;2022-08-16T06:19:00;8.05;;;5.30;;
74215;SDS011;62577;53.378;-2.914;2022-08-16T06:21:26;5.75;;;5.00;;
74215;SDS011;62577;53.378;-2.914;2022-08-16T06:23:53;8.77;;;5.57;;
74215;SDS011;62577;53.378;-2.914;2022-08-16T06:26:19;6.60;;;4.90;;
74215;SDS011;62577;53.378;-2.914;2022-08-16T06:28:45;9.23;;;5.55;;
74215;SDS011;62577;53.378;-2.914;2022-08-16T06:31:12;6.30;;;5.45;;
74215;SDS011;62577;53.378;-2.914;2022-08-16T06:33:39;6.15;;;4.90;;
74215;SDS011;62577;53.378;-2.914;2022-08-16T06:36:05;7.13;;;5.85;;
74215;SDS011;62577;53.378;-2.914;2022-08-16T06:38:33;7.43;;;6.07;;
74215;SDS011;62577;53.378;-2.914;2022-08-16T06:40:59;6.90;;;5.28;;
74215;SDS011;62577;53.378;-2.914;2022-08-16T06:43:25;8.48;;;5.82;;
74215;SDS011;62577;53.378;-2.914;2022-08-16T06:45:51;9.52;;;6.05;;
74215;SDS011;62577;53.378;-2.914;2022-08-16T06:48:17;6.50;;;5.55;;
74215;SDS011;62577;53.378;-2.914;2022-08-16T06:50:44;7.20;;;5.45;;
74215;SDS011;62577;53.378;-2.914;2022-08-16T06:53:12;8.02;;;5.05;;
74215;SDS011;62577;53.378;-2.914;2022-08-16T06:55:38;9.55;;;5.85;;
74215;SDS011;62577;53.378;-2.914;2022-08-16T06:58:04;7.07;;;5.32;;
74215;SDS011;62577;53.378;-2.914;2022-08-16T07:00:30;9.73;;;5.88;;
74215;SDS011;62577;53.378;-2.914;2022-08-16T07:02:56;8.60;;;5.40;;
74215;SDS011;62577;53.378;-2.914;2022-08-16T07:05:23;8.68;;;6.03;;
74215;SDS011;62577;53.378;-2.914;2022-08-16T07:07:49;7.63;;;6.10;;
74215;SDS011;62577;53.378;-2.914;2022-08-16T07:10:16;7.68;;;5.60;;
74215;SDS011;62577;53.378;-2.914;2022-08-16T07:12:42;8.32;;;5.85;;
74215;SDS011;62577;53.378;-2.914;2022-08-16T07:15:09;9.68;;;5.85;;
74215;SDS011;62577;53.378;-2.914;2022-08-16T07:17:35;9.73;;;5.63;;
74215;SDS011;62577;53.378;-2.914;2022-08-16T07:20:03;10.13;;;6.00;;
74215;SDS011;62577;53.378;-2.914;2022-08-16T07:22:29;8.18;;;5.30;;
74215;SDS011;62577;53.378;-2.914;2022-08-16T07:24:55;11.27;;;6.28;;
74215;SDS011;62577;53.378;-2.914;2022-08-16T07:27:21;9.45;;;5.65;;
74215;SDS011;62577;53.378;-2.914;2022-08-16T07:29:47;7.68;;;6.10;;
74215;SDS011;62577;53.378;-2.914;2022-08-16T07:32:14;10.00;;;6.25;;
74215;SDS011;62577;53.378;-2.914;2022-08-16T07:34:40;7.95;;;5.55;;
74215;SDS011;62577;53.378;-2.914;2022-08-16T07:37:07;13.13;;;5.95;;
74215;SDS011;62577;53.378;-2.914;2022-08-16T07:39:34;8.10;;;6.05;;
74215;SDS011;62577;53.378;-2.914;2022-08-16T07:42:01;9.20;;;6.47;;
74215;SDS011;62577;53.378;-2.914;2022-08-16T07:44:27;8.85;;;5.60;;
74215;SDS011;62577;53.378;-2.914;2022-08-16T07:46:53;10.07;;;6.22;;
74215;SDS011;62577;53.378;-2.914;2022-08-16T07:49:20;8.48;;;5.95;;
74215;SDS011;62577;53.378;-2.914;2022-08-16T07:51:46;10.30;;;5.55;;
74215;SDS011;62577;53.378;-2.914;2022-08-16T07:54:12;10.13;;;5.72;;
74215;SDS011;62577;53.378;-2.914;2022-08-16T07:56:38;8.93;;;5.55;;
74215;SDS011;62577;53.378;-2.914;2022-08-16T07:59:05;9.77;;;5.35;;
74215;SDS011;62577;53.378;-2.914;2022-08-16T08:01:31;8.07;;;5.65;;
74215;SDS011;62577;53.378;-2.914;2022-08-16T08:03:57;9.48;;;5.57;;
74215;SDS011;62577;53.378;-2.914;2022-08-16T08:06:24;9.30;;;5.90;;
74215;SDS011;62577;53.378;-2.914;2022-08-16T08:08:54;7.97;;;5.40;;
74215;SDS011;62577;53.378;-2.914;2022-08-16T08:11:21;9.73;;;5.90;;
74215;SDS011;62577;53.378;-2.914;2022-08-16T08:13:48;15.02;;;6.97;;
74215;SDS011;62577;53.378;-2.914;2022-08-16T08:16:14;10.68;;;5.68;;
74215;SDS011;62577;53.378;-2.914;2022-08-16T08:18:40;11.52;;;6.35;;
74215;SDS011;62577;53.378;-2.914;2022-08-16T08:21:06;12.57;;;6.80;;
74215;SDS011;62577;53.378;-2.914;2022-08-16T08:23:33;13.45;;;6.38;;
74215;SDS011;62577;53.378;-2.914;2022-08-16T08:26:03;10.50;;;6.38;;
74215;SDS011;62577;53.378;-2.914;2022-08-16T08:28:30;10.55;;;6.88;;
74215;SDS011;62577;53.378;-2.914;2022-08-16T08:30:57;11.35;;;7.30;;
74215;SDS011;62577;53.378;-2.914;2022-08-16T08:33:23;14.18;;;6.93;;
74215;SDS011;62577;53.378;-2.914;2022-08-16T08:35:49;9.65;;;6.70;;
74215;SDS011;62577;53.378;-2.914;2022-08-16T08:38:17;11.43;;;6.57;;
74215;SDS011;62577;53.378;-2.914;2022-08-16T08:40:44;12.05;;;6.28;;
74215;SDS011;62577;53.378;-2.914;2022-08-16T08:43:10;11.35;;;6.72;;
74215;SDS011;62577;53.378;-2.914;2022-08-16T08:45:37;14.73;;;6.90;;
74215;SDS011;62577;53.378;-2.914;2022-08-16T08:48:03;12.18;;;6.40;;
74215;SDS011;62577;53.378;-2.914;2022-08-16T08:50:29;8.43;;;6.43;;
74215;SDS011;62577;53.378;-2.914;2022-08-16T08:52:55;10.82;;;5.82;;
74215;SDS011;62577;53.378;-2.914;2022-08-16T08:55:21;11.15;;;6.43;;
74215;SDS011;62577;53.378;-2.914;2022-08-16T08:57:48;9.50;;;6.00;;
74215;SDS011;62577;53.378;-2.914;2022-08-16T09:00:16;10.48;;;5.85;;
74215;SDS011;62577;53.378;-2.914;2022-08-16T09:02:43;11.45;;;6.07;;
74215;SDS011;62577;53.378;-2.914;2022-08-16T09:05:09;8.82;;;5.32;;
74215;SDS011;62577;53.378;-2.914;2022-08-16T09:07:36;11.00;;;6.55;;
74215;SDS011;62577;53.378;-2.914;2022-08-16T09:10:03;9.23;;;6.32;;
74215;SDS011;62577;53.378;-2.914;2022-08-16T09:12:30;7.93;;;4.70;;
74215;SDS011;62577;53.378;-2.914;2022-08-16T09:14:56;6.93;;;5.10;;
74215;SDS011;62577;53.378;-2.914;2022-08-16T09:17:22;13.18;;;7.63;;
74215;SDS011;62577;53.378;-2.914;2022-08-16T09:19:49;6.47;;;4.20;;
74215;SDS011;62577;53.378;-2.914;2022-08-16T09:22:15;8.90;;;4.68;;
74215;SDS011;62577;53.378;-2.914;2022-08-16T09:24:43;5.63;;;4.25;;
74215;SDS011;62577;53.378;-2.914;2022-08-16T09:27:09;7.38;;;4.55;;
74215;SDS011;62577;53.378;-2.914;2022-08-16T09:29:35;7.28;;;4.40;;
74215;SDS011;62577;53.378;-2.914;2022-08-16T09:32:01;7.57;;;3.83;;
74215;SDS011;62577;53.378;-2.914;2022-08-16T09:34:27;8.07;;;3.83;;
74215;SDS011;62577;53.378;-2.914;2022-08-16T09:36:53;5.70;;;3.47;;
74215;SDS011;62577;53.378;-2.914;2022-08-16T09:39:22;10.65;;;4.10;;
74215;SDS011;62577;53.378;-2.914;2022-08-16T09:41:48;6.40;;;4.30;;
74215;SDS011;62577;53.378;-2.914;2022-08-16T09:44:16;15.77;;;4.40;;
74215;SDS011;62577;53.378;-2.914;2022-08-16T09:46:44;8.25;;;3.47;;
74215;SDS011;62577;53.378;-2.914;2022-08-16T09:49:10;9.55;;;3.88;;
74215;SDS011;62577;53.378;-2.914;2022-08-16T09:51:36;5.93;;;3.05;;
74215;SDS011;62577;53.378;-2.914;2022-08-16T09:54:03;5.00;;;3.28;;
74215;SDS011;62577;53.378;-2.914;2022-08-16T09:56:30;5.35;;;3.50;;
74215;SDS011;62577;53.378;-2.914;2022-08-16T09:58:57;5.55;;;3.50;;
74215;SDS011;62577;53.378;-2.914;2022-08-16T10:01:23;5.93;;;3.03;;
74215;SDS011;62577;53.378;-2.914;2022-08-16T10:03:50;8.57;;;3.55;;
74215;SDS011;62577;53.378;-2.914;2022-08-16T10:06:20;8.93;;;3.60;;
74215;SDS011;62577;53.378;-2.914;2022-08-16T10:08:49;9.43;;;3.58;;
74215;SDS011;62577;53.378;-2.914;2022-08-16T10:11:15;10.45;;;3.50;;
74215;SDS011;62577;53.378;-2.914;2022-08-16T10:14:00;9.15;;;3.60;;
74215;SDS011;62577;53.378;-2.914;2022-08-16T10:16:26;8.88;;;3.20;;
74215;SDS011;62577;53.378;-2.914;2022-08-16T10:18:53;8.60;;;3.40;;
74215;SDS011;62577;53.378;-2.914;2022-08-16T10:21:19;8.75;;;3.08;;
74215;SDS011;62577;53.378;-2.914;2022-08-16T10:23:46;11.73;;;3.63;;
74215;SDS011;62577;53.378;-2.914;2022-08-16T10:26:13;10.20;;;3.33;;
74215;SDS011;62577;53.378;-2.914;2022-08-16T10:28:40;8.18;;;2.72;;
74215;SDS011;62577;53.378;-2.914;2022-08-16T10:31:06;6.18;;;3.08;;
74215;SDS011;62577;53.378;-2.914;2022-08-16T10:33:32;9.07;;;3.58;;
74215;SDS011;62577;53.378;-2.914;2022-08-16T10:35:59;6.80;;;3.13;;
74215;SDS011;62577;53.378;-2.914;2022-08-16T10:38:25;7.07;;;3.20;;
74215;SDS011;62577;53.378;-2.914;2022-08-16T10:40:52;7.15;;;3.05;;
74215;SDS011;62577;53.378;-2.914;2022-08-16T10:43:18;7.55;;;3.22;;
74215;SDS011;62577;53.378;-2.914;2022-08-16T10:45:44;8.93;;;3.38;;
74215;SDS011;62577;53.378;-2.914;2022-08-16T10:48:12;7.97;;;3.25;;
74215;SDS011;62577;53.378;-2.914;2022-08-16T10:50:38;6.03;;;2.80;;
74215;SDS011;62577;53.378;-2.914;2022-08-16T10:53:04;8.20;;;3.25;;
74215;SDS011;62577;53.378;-2.914;2022-08-16T10:55:35;4.95;;;2.88;;
74215;SDS011;62577;53.378;-2.914;2022-08-16T10:58:04;8.05;;;3.13;;
74215;SDS011;62577;53.378;-2.914;2022-08-16T11:00:31;6.30;;;2.65;;
74215;SDS011;62577;53.378;-2.914;2022-08-16T11:03:00;8.75;;;3.10;;
74215;SDS011;62577;53.378;-2.914;2022-08-16T11:05:31;6.43;;;2.90;;
74215;SDS011;62577;53.378;-2.914;2022-08-16T11:07:58;8.38;;;3.40;;
74215;SDS011;62577;53.378;-2.914;2022-08-16T11:10:25;8.10;;;3.08;;
74215;SDS011;62577;53.378;-2.914;2022-08-16T11:12:52;10.65;;;3.65;;
74215;SDS011;62577;53.378;-2.914;2022-08-16T11:15:18;8.55;;;3.00;;
74215;SDS011;62577;53.378;-2.914;2022-08-16T11:17:46;10.40;;;3.35;;
74215;SDS011;62577;53.378;-2.914;2022-08-16T11:20:12;7.47;;;3.13;;
74215;SDS011;62577;53.378;-2.914;2022-08-16T11:22:42;6.95;;;3.00;;
74215;SDS011;62577;53.378;-2.914;2022-08-16T11:25:08;7.32;;;3.20;;
74215;SDS011;62577;53.378;-2.914;2022-08-16T11:27:34;9.13;;;3.17;;
74215;SDS011;62577;53.378;-2.914;2022-08-16T11:30:00;6.57;;;2.85;;
74215;SDS011;62577;53.378;-2.914;2022-08-16T11:32:27;7.35;;;3.47;;
74215;SDS011;62577;53.378;-2.914;2022-08-16T11:34:54;6.95;;;3.05;;
74215;SDS011;62577;53.378;-2.914;2022-08-16T11:37:20;8.57;;;3.75;;
74215;SDS011;62577;53.378;-2.914;2022-08-16T11:39:46;5.38;;;3.55;;
74215;SDS011;62577;53.378;-2.914;2022-08-16T11:42:13;7.07;;;3.00;;
74215;SDS011;62577;53.378;-2.914;2022-08-16T11:44:39;6.57;;;3.00;;
74215;SDS011;62577;53.378;-2.914;2022-08-16T11:47:05;8.70;;;3.20;;
74215;SDS011;62577;53.378;-2.914;2022-08-16T11:49:31;8.20;;;3.17;;
74215;SDS011;62577;53.378;-2.914;2022-08-16T11:51:58;6.18;;;2.45;;
74215;SDS011;62577;53.378;-2.914;2022-08-16T11:54:25;5.72;;;2.45;;
74215;SDS011;62577;53.378;-2.914;2022-08-16T11:56:51;6.53;;;2.80;;
74215;SDS011;62577;53.378;-2.914;2022-08-16T11:59:17;6.35;;;2.95;;
74215;SDS011;62577;53.378;-2.914;2022-08-16T12:01:44;7.18;;;2.97;;
74215;SDS011;62577;53.378;-2.914;2022-08-16T12:04:10;4.15;;;2.22;;
74215;SDS011;62577;53.378;-2.914;2022-08-16T12:06:36;5.32;;;2.20;;
74215;SDS011;62577;53.378;-2.914;2022-08-16T12:09:03;5.10;;;2.28;;
74215;SDS011;62577;53.378;-2.914;2022-08-16T12:11:30;5.35;;;2.22;;
74215;SDS011;62577;53.378;-2.914;2022-08-16T12:13:57;7.88;;;2.58;;
74215;SDS011;62577;53.378;-2.914;2022-08-16T12:16:23;5.75;;;2.55;;
74215;SDS011;62577;53.378;-2.914;2022-08-16T12:18:49;4.57;;;2.30;;
74215;SDS011;62577;53.378;-2.914;2022-08-16T12:21:15;7.57;;;2.53;;
74215;SDS011;62577;53.378;-2.914;2022-08-16T12:23:42;5.40;;;1.83;;
74215;SDS011;62577;53.378;-2.914;2022-08-16T12:26:08;7.57;;;2.65;;
74215;SDS011;62577;53.378;-2.914;2022-08-16T12:28:34;4.60;;;2.38;;
74215;SDS011;62577;53.378;-2.914;2022-08-16T12:31:00;7.30;;;2.83;;
74215;SDS011;62577;53.378;-2.914;2022-08-16T12:33:26;7.75;;;2.40;;
74215;SDS011;62577;53.378;-2.914;2022-08-16T12:35:52;6.88;;;2.50;;
74215;SDS011;62577;53.378;-2.914;2022-08-16T12:38:18;7.00;;;2.42;;
74215;SDS011;62577;53.378;-2.914;2022-08-16T12:40:46;9.48;;;2.67;;
74215;SDS011;62577;53.378;-2.914;2022-08-16T12:43:13;7.60;;;2.47;;
74215;SDS011;62577;53.378;-2.914;2022-08-16T12:45:44;5.28;;;1.95;;
74215;SDS011;62577;53.378;-2.914;2022-08-16T12:48:11;6.00;;;2.33;;
74215;SDS011;62577;53.378;-2.914;2022-08-16T12:50:56;6.13;;;2.17;;
74215;SDS011;62577;53.378;-2.914;2022-08-16T12:53:22;6.22;;;2.45;;
74215;SDS011;62577;53.378;-2.914;2022-08-16T12:55:48;5.07;;;2.15;;
74215;SDS011;62577;53.378;-2.914;2022-08-16T12:58:15;5.05;;;2.35;;
74215;SDS011;62577;53.378;-2.914;2022-08-16T13:00:41;4.80;;;2.20;;
74215;SDS011;62577;53.378;-2.914;2022-08-16T13:03:08;7.43;;;2.70;;
74215;SDS011;62577;53.378;-2.914;2022-08-16T13:05:34;3.13;;;2.10;;
74215;SDS011;62577;53.378;-2.914;2022-08-16T13:08:05;3.40;;;2.15;;
74215;SDS011;62577;53.378;-2.914;2022-08-16T13:10:31;5.25;;;2.88;;
74215;SDS011;62577;53.378;-2.914;2022-08-16T13:12:57;3.78;;;2.50;;
74215;SDS011;62577;53.378;-2.914;2022-08-16T13:15:25;5.35;;;3.08;;
74215;SDS011;62577;53.378;-2.914;2022-08-16T13:17:52;5.65;;;3.15;;
74215;SDS011;62577;53.378;-2.914;2022-08-16T13:20:20;5.75;;;3.58;;
74215;SDS011;62577;53.378;-2.914;2022-08-16T13:22:47;4.28;;;3.38;;
74215;SDS011;62577;53.378;-2.914;2022-08-16T13:25:16;3.75;;;2.90;;
74215;SDS011;62577;53.378;-2.914;2022-08-16T13:27:42;4.25;;;2.92;;
74215;SDS011;62577;53.378;-2.914;2022-08-16T13:30:08;3.67;;;2.30;;
74215;SDS011;62577;53.378;-2.914;2022-08-16T13:32:34;4.40;;;2.10;;
74215;SDS011;62577;53.378;-2.914;2022-08-16T13:35:00;5.82;;;2.38;;
74215;SDS011;62577;53.378;-2.914;2022-08-16T13:37:26;6.38;;;2.45;;
74215;SDS011;62577;53.378;-2.914;2022-08-16T13:39:52;3.90;;;1.95;;
74215;SDS011;62577;53.378;-2.914;2022-08-16T13:42:18;6.85;;;1.90;;
74215;SDS011;62577;53.378;-2.914;2022-08-16T13:44:45;5.85;;;2.00;;
74215;SDS011;62577;53.378;-2.914;2022-08-16T13:47:12;8.32;;;2.38;;
74215;SDS011;62577;53.378;-2.914;2022-08-16T13:49:38;5.80;;;2.00;;
74215;SDS011;62577;53.378;-2.914;2022-08-16T13:52:05;7.45;;;1.92;;
74215;SDS011;62577;53.378;-2.914;2022-08-16T13:54:32;8.13;;;2.17;;
74215;SDS011;62577;53.378;-2.914;2022-08-16T13:56:58;10.05;;;2.00;;
74215;SDS011;62577;53.378;-2.914;2022-08-16T13:59:24;7.47;;;1.80;;
74215;SDS011;62577;53.378;-2.914;2022-08-16T14:01:52;3.00;;;1.60;;
74215;SDS011;62577;53.378;-2.914;2022-08-16T14:04:18;5.20;;;1.52;;
74215;SDS011;62577;53.378;-2.914;2022-08-16T14:06:44;4.78;;;1.67;;
74215;SDS011;62577;53.378;-2.914;2022-08-16T14:09:10;4.10;;;1.60;;
74215;SDS011;62577;53.378;-2.914;2022-08-16T14:11:36;3.33;;;1.70;;
74215;SDS011;62577;53.378;-2.914;2022-08-16T14:14:02;3.38;;;1.88;;
74215;SDS011;62577;53.378;-2.914;2022-08-16T14:16:28;5.30;;;1.92;;
74215;SDS011;62577;53.378;-2.914;2022-08-16T14:18:54;4.85;;;1.98;;
74215;SDS011;62577;53.378;-2.914;2022-08-16T14:21:20;5.15;;;1.70;;
74215;SDS011;62577;53.378;-2.914;2022-08-16T14:23:47;4.95;;;1.73;;
74215;SDS011;62577;53.378;-2.914;2022-08-16T14:26:13;4.97;;;1.38;;